sensor_id;sensor_type;location;lat;lon;timestamp;P1;durP1;ratioP1;P2;durP2;ratioP2
17921;SDS011;9086;50.966;3.144;2022-11-20T00:01:30;34.63;;;21.50;;
17921;SDS011;9086;50.966;3.144;2022-11-20T00:03:56;33.97;;;20.70;;
17921;SDS011;9086;50.966;3.144;2022-11-20T00:06:23;33.43;;;20.93;;
17921;SDS011;9086;50.966;3.144;2022-11-20T00:08:49;35.27;;;20.50;;
17921;SDS011;9086;50.966;3.144;2022-11-20T00:11:16;34.27;;;21.07;;
17921;SDS011;9086;50.966;3.144;2022-11-20T00:13:43;35.83;;;21.77;;
17921;SDS011;9086;50.966;3.144;2022-11-20T00:16:10;33.90;;;21.60;;
17921;SDS011;9086;50.966;3.144;2022-11-20T00:18:36;34.67;;;22.50;;
17921;SDS011;9086;50.966;3.144;2022-11-20T00:21:03;35.73;;;22.37;;
17921;SDS011;9086;50.966;3.144;2022-11-20T00:23:29;36.77;;;23.83;;
17921;SDS011;9086;50.966;3.144;2022-11-20T00:25:55;37.83;;;21.50;;
17921;SDS011;9086;50.966;3.144;2022-11-20T00:28:21;38.00;;;23.93;;
17921;SDS011;9086;50.966;3.144;2022-11-20T00:30:47;38.53;;;23.30;;
17921;SDS011;9086;50.966;3.144;2022-11-20T00:33:13;42.73;;;24.90;;
17921;SDS011;9086;50.966;3.144;2022-11-20T00:35:39;37.83;;;25.00;;
17921;SDS011;9086;50.966;3.144;2022-11-20T00:38:05;37.40;;;24.50;;
17921;SDS011;9086;50.966;3.144;2022-11-20T00:40:31;39.27;;;24.07;;
17921;SDS011;9086;50.966;3.144;2022-11-20T00:42:57;38.77;;;23.83;;
17921;SDS011;9086;50.966;3.144;2022-11-20T00:45:23;41.23;;;24.73;;
17921;SDS011;9086;50.966;3.144;2022-11-20T00:47:49;42.00;;;24.67;;
17921;SDS011;9086;50.966;3.144;2022-11-20T00:50:15;40.13;;;23.97;;
17921;SDS011;9086;50.966;3.144;2022-11-20T00:52:41;43.47;;;24.80;;
17921;SDS011;9086;50.966;3.144;2022-11-20T00:55:07;39.17;;;23.00;;
17921;SDS011;9086;50.966;3.144;2022-11-20T00:57:34;39.87;;;24.20;;
17921;SDS011;9086;50.966;3.144;2022-11-20T01:00:00;42.70;;;25.50;;
17921;SDS011;9086;50.966;3.144;2022-11-20T01:02:26;37.53;;;23.97;;
17921;SDS011;9086;50.966;3.144;2022-11-20T01:04:52;37.80;;;24.27;;
17921;SDS011;9086;50.966;3.144;2022-11-20T01:07:18;43.93;;;25.13;;
17921;SDS011;9086;50.966;3.144;2022-11-20T01:09:44;41.63;;;24.40;;
17921;SDS011;9086;50.966;3.144;2022-11-20T01:12:10;44.93;;;25.90;;
17921;SDS011;9086;50.966;3.144;2022-11-20T01:14:36;41.33;;;24.23;;
17921;SDS011;9086;50.966;3.144;2022-11-20T01:17:02;39.60;;;23.97;;
17921;SDS011;9086;50.966;3.144;2022-11-20T01:19:28;40.70;;;23.87;;
17921;SDS011;9086;50.966;3.144;2022-11-20T01:21:54;34.77;;;23.23;;
17921;SDS011;9086;50.966;3.144;2022-11-20T01:24:21;40.70;;;25.23;;
17921;SDS011;9086;50.966;3.144;2022-11-20T01:26:48;39.10;;;23.93;;
17921;SDS011;9086;50.966;3.144;2022-11-20T01:29:18;41.03;;;25.43;;
17921;SDS011;9086;50.966;3.144;2022-11-20T01:31:45;40.97;;;23.43;;
17921;SDS011;9086;50.966;3.144;2022-11-20T01:34:12;48.93;;;26.10;;
17921;SDS011;9086;50.966;3.144;2022-11-20T01:36:39;57.03;;;27.83;;
17921;SDS011;9086;50.966;3.144;2022-11-20T01:39:06;62.27;;;30.40;;
17921;SDS011;9086;50.966;3.144;2022-11-20T01:41:33;61.30;;;29.47;;
17921;SDS011;9086;50.966;3.144;2022-11-20T01:44:19;66.57;;;29.80;;
17921;SDS011;9086;50.966;3.144;2022-11-20T01:47:07;62.03;;;31.97;;
17921;SDS011;9086;50.966;3.144;2022-11-20T01:49:39;64.27;;;31.03;;
17921;SDS011;9086;50.966;3.144;2022-11-20T01:52:28;62.07;;;31.60;;
17921;SDS011;9086;50.966;3.144;2022-11-20T01:54:57;62.97;;;30.50;;
17921;SDS011;9086;50.966;3.144;2022-11-20T01:57:25;60.50;;;33.03;;
17921;SDS011;9086;50.966;3.144;2022-11-20T01:59:53;63.00;;;31.03;;
17921;SDS011;9086;50.966;3.144;2022-11-20T02:02:22;64.87;;;31.40;;
17921;SDS011;9086;50.966;3.144;2022-11-20T02:04:49;66.90;;;32.83;;
17921;SDS011;9086;50.966;3.144;2022-11-20T02:07:17;59.27;;;31.10;;
17921;SDS011;9086;50.966;3.144;2022-11-20T02:09:44;64.67;;;32.03;;
17921;SDS011;9086;50.966;3.144;2022-11-20T02:12:10;61.20;;;30.73;;
17921;SDS011;9086;50.966;3.144;2022-11-20T02:14:56;64.93;;;31.80;;
17921;SDS011;9086;50.966;3.144;2022-11-20T02:17:23;58.87;;;30.97;;
17921;SDS011;9086;50.966;3.144;2022-11-20T02:19:49;70.17;;;33.67;;
17921;SDS011;9086;50.966;3.144;2022-11-20T02:22:18;64.77;;;33.57;;
17921;SDS011;9086;50.966;3.144;2022-11-20T02:24:45;61.37;;;31.93;;
17921;SDS011;9086;50.966;3.144;2022-11-20T02:27:12;57.73;;;32.30;;
17921;SDS011;9086;50.966;3.144;2022-11-20T02:29:40;61.63;;;33.33;;
17921;SDS011;9086;50.966;3.144;2022-11-20T02:32:17;68.70;;;33.50;;
17921;SDS011;9086;50.966;3.144;2022-11-20T02:34:43;71.67;;;33.77;;
17921;SDS011;9086;50.966;3.144;2022-11-20T02:37:09;68.03;;;34.10;;
17921;SDS011;9086;50.966;3.144;2022-11-20T02:39:35;70.70;;;35.53;;
17921;SDS011;9086;50.966;3.144;2022-11-20T02:42:01;67.50;;;34.37;;
17921;SDS011;9086;50.966;3.144;2022-11-20T02:44:27;69.50;;;33.50;;
17921;SDS011;9086;50.966;3.144;2022-11-20T02:46:56;72.73;;;35.57;;
17921;SDS011;9086;50.966;3.144;2022-11-20T02:49:22;73.27;;;35.47;;
17921;SDS011;9086;50.966;3.144;2022-11-20T02:51:48;70.87;;;35.33;;
17921;SDS011;9086;50.966;3.144;2022-11-20T02:54:14;77.10;;;34.73;;
17921;SDS011;9086;50.966;3.144;2022-11-20T02:56:40;71.10;;;34.03;;
17921;SDS011;9086;50.966;3.144;2022-11-20T02:59:06;75.07;;;32.97;;
17921;SDS011;9086;50.966;3.144;2022-11-20T03:01:33;73.83;;;35.43;;
17921;SDS011;9086;50.966;3.144;2022-11-20T03:03:59;74.63;;;35.77;;
17921;SDS011;9086;50.966;3.144;2022-11-20T03:06:25;65.13;;;34.27;;
17921;SDS011;9086;50.966;3.144;2022-11-20T03:08:51;68.90;;;33.43;;
17921;SDS011;9086;50.966;3.144;2022-11-20T03:11:17;71.67;;;36.07;;
17921;SDS011;9086;50.966;3.144;2022-11-20T03:13:43;79.60;;;36.23;;
17921;SDS011;9086;50.966;3.144;2022-11-20T03:16:10;67.37;;;35.00;;
17921;SDS011;9086;50.966;3.144;2022-11-20T03:18:37;74.33;;;35.67;;
17921;SDS011;9086;50.966;3.144;2022-11-20T03:21:03;68.90;;;34.43;;
17921;SDS011;9086;50.966;3.144;2022-11-20T03:23:29;66.80;;;33.83;;
17921;SDS011;9086;50.966;3.144;2022-11-20T03:26:06;66.47;;;35.00;;
17921;SDS011;9086;50.966;3.144;2022-11-20T03:28:32;68.57;;;34.57;;
17921;SDS011;9086;50.966;3.144;2022-11-20T03:30:59;62.90;;;33.80;;
17921;SDS011;9086;50.966;3.144;2022-11-20T03:33:30;66.57;;;33.97;;
17921;SDS011;9086;50.966;3.144;2022-11-20T03:36:00;67.03;;;33.47;;
17921;SDS011;9086;50.966;3.144;2022-11-20T03:38:28;78.50;;;36.37;;
17921;SDS011;9086;50.966;3.144;2022-11-20T03:40:58;65.80;;;33.30;;
17921;SDS011;9086;50.966;3.144;2022-11-20T03:43:24;65.03;;;33.07;;
17921;SDS011;9086;50.966;3.144;2022-11-20T03:45:50;63.40;;;31.47;;
17921;SDS011;9086;50.966;3.144;2022-11-20T03:48:16;67.30;;;32.17;;
17921;SDS011;9086;50.966;3.144;2022-11-20T03:50:42;70.73;;;33.17;;
17921;SDS011;9086;50.966;3.144;2022-11-20T03:53:08;63.13;;;33.17;;
17921;SDS011;9086;50.966;3.144;2022-11-20T03:55:34;60.97;;;31.77;;
17921;SDS011;9086;50.966;3.144;2022-11-20T03:58:00;71.37;;;33.00;;
17921;SDS011;9086;50.966;3.144;2022-11-20T04:00:26;65.53;;;31.77;;
17921;SDS011;9086;50.966;3.144;2022-11-20T04:02:52;66.77;;;30.50;;
17921;SDS011;9086;50.966;3.144;2022-11-20T04:05:18;68.33;;;33.33;;
17921;SDS011;9086;50.966;3.144;2022-11-20T04:07:44;65.13;;;32.13;;
17921;SDS011;9086;50.966;3.144;2022-11-20T04:10:10;57.67;;;30.30;;
17921;SDS011;9086;50.966;3.144;2022-11-20T04:12:36;67.73;;;31.97;;
17921;SDS011;9086;50.966;3.144;2022-11-20T04:15:02;67.00;;;31.90;;
17921;SDS011;9086;50.966;3.144;2022-11-20T04:17:28;63.23;;;31.23;;
17921;SDS011;9086;50.966;3.144;2022-11-20T04:19:54;65.13;;;33.00;;
17921;SDS011;9086;50.966;3.144;2022-11-20T04:22:20;60.83;;;31.13;;
17921;SDS011;9086;50.966;3.144;2022-11-20T04:24:46;59.43;;;30.77;;
17921;SDS011;9086;50.966;3.144;2022-11-20T04:27:12;69.60;;;33.97;;
17921;SDS011;9086;50.966;3.144;2022-11-20T04:29:38;63.27;;;30.90;;
17921;SDS011;9086;50.966;3.144;2022-11-20T04:32:04;66.13;;;32.67;;
17921;SDS011;9086;50.966;3.144;2022-11-20T04:34:30;65.50;;;33.07;;
17921;SDS011;9086;50.966;3.144;2022-11-20T04:36:57;66.00;;;32.53;;
17921;SDS011;9086;50.966;3.144;2022-11-20T04:39:23;63.60;;;33.10;;
17921;SDS011;9086;50.966;3.144;2022-11-20T04:41:49;61.33;;;31.57;;
17921;SDS011;9086;50.966;3.144;2022-11-20T04:44:35;61.77;;;30.60;;
17921;SDS011;9086;50.966;3.144;2022-11-20T04:47:01;56.77;;;28.50;;
17921;SDS011;9086;50.966;3.144;2022-11-20T04:49:27;61.60;;;29.90;;
17921;SDS011;9086;50.966;3.144;2022-11-20T04:51:53;52.50;;;29.03;;
17921;SDS011;9086;50.966;3.144;2022-11-20T04:54:19;52.80;;;27.33;;
17921;SDS011;9086;50.966;3.144;2022-11-20T04:56:48;55.33;;;27.83;;
17921;SDS011;9086;50.966;3.144;2022-11-20T04:59:14;50.20;;;27.83;;
17921;SDS011;9086;50.966;3.144;2022-11-20T05:01:40;54.47;;;28.33;;
17921;SDS011;9086;50.966;3.144;2022-11-20T05:04:06;58.87;;;29.67;;
17921;SDS011;9086;50.966;3.144;2022-11-20T05:06:32;51.67;;;28.33;;
17921;SDS011;9086;50.966;3.144;2022-11-20T05:08:58;48.27;;;29.50;;
17921;SDS011;9086;50.966;3.144;2022-11-20T05:11:25;54.33;;;28.33;;
17921;SDS011;9086;50.966;3.144;2022-11-20T05:13:54;47.03;;;26.30;;
17921;SDS011;9086;50.966;3.144;2022-11-20T05:16:21;51.90;;;25.97;;
17921;SDS011;9086;50.966;3.144;2022-11-20T05:18:48;49.33;;;27.90;;
17921;SDS011;9086;50.966;3.144;2022-11-20T05:21:14;52.90;;;27.97;;
17921;SDS011;9086;50.966;3.144;2022-11-20T05:23:40;51.23;;;27.97;;
17921;SDS011;9086;50.966;3.144;2022-11-20T05:26:07;51.37;;;29.17;;
17921;SDS011;9086;50.966;3.144;2022-11-20T05:28:34;58.40;;;28.63;;
17921;SDS011;9086;50.966;3.144;2022-11-20T05:31:07;56.03;;;28.57;;
17921;SDS011;9086;50.966;3.144;2022-11-20T05:33:33;58.67;;;28.20;;
17921;SDS011;9086;50.966;3.144;2022-11-20T05:36:00;59.13;;;30.27;;
17921;SDS011;9086;50.966;3.144;2022-11-20T05:38:26;61.33;;;31.73;;
17921;SDS011;9086;50.966;3.144;2022-11-20T05:40:52;59.40;;;31.17;;
17921;SDS011;9086;50.966;3.144;2022-11-20T05:43:18;66.90;;;31.00;;
17921;SDS011;9086;50.966;3.144;2022-11-20T05:45:51;64.27;;;32.13;;
17921;SDS011;9086;50.966;3.144;2022-11-20T05:48:17;53.27;;;31.67;;
17921;SDS011;9086;50.966;3.144;2022-11-20T05:50:43;59.77;;;33.20;;
17921;SDS011;9086;50.966;3.144;2022-11-20T05:53:09;54.87;;;31.83;;
17921;SDS011;9086;50.966;3.144;2022-11-20T05:55:35;60.73;;;32.83;;
17921;SDS011;9086;50.966;3.144;2022-11-20T05:58:01;51.90;;;32.10;;
17921;SDS011;9086;50.966;3.144;2022-11-20T06:00:27;54.00;;;33.73;;
17921;SDS011;9086;50.966;3.144;2022-11-20T06:02:53;52.87;;;29.17;;
17921;SDS011;9086;50.966;3.144;2022-11-20T06:05:19;53.90;;;33.33;;
17921;SDS011;9086;50.966;3.144;2022-11-20T06:07:45;47.27;;;31.40;;
17921;SDS011;9086;50.966;3.144;2022-11-20T06:10:11;55.20;;;33.43;;
17921;SDS011;9086;50.966;3.144;2022-11-20T06:12:37;55.83;;;31.63;;
17921;SDS011;9086;50.966;3.144;2022-11-20T06:15:04;62.83;;;34.27;;
17921;SDS011;9086;50.966;3.144;2022-11-20T06:17:30;59.07;;;33.33;;
17921;SDS011;9086;50.966;3.144;2022-11-20T06:19:56;58.30;;;34.80;;
17921;SDS011;9086;50.966;3.144;2022-11-20T06:22:22;49.97;;;31.93;;
17921;SDS011;9086;50.966;3.144;2022-11-20T06:24:48;55.50;;;34.60;;
17921;SDS011;9086;50.966;3.144;2022-11-20T06:27:14;53.83;;;34.90;;
17921;SDS011;9086;50.966;3.144;2022-11-20T06:29:40;60.23;;;36.33;;
17921;SDS011;9086;50.966;3.144;2022-11-20T06:32:06;66.97;;;37.47;;
17921;SDS011;9086;50.966;3.144;2022-11-20T06:34:32;61.83;;;36.23;;
17921;SDS011;9086;50.966;3.144;2022-11-20T06:36:58;61.80;;;37.07;;
17921;SDS011;9086;50.966;3.144;2022-11-20T06:39:24;59.07;;;34.63;;
17921;SDS011;9086;50.966;3.144;2022-11-20T06:41:50;61.10;;;35.87;;
17921;SDS011;9086;50.966;3.144;2022-11-20T06:44:16;60.53;;;34.80;;
17921;SDS011;9086;50.966;3.144;2022-11-20T06:46:42;66.17;;;38.47;;
17921;SDS011;9086;50.966;3.144;2022-11-20T06:49:08;66.47;;;37.17;;
17921;SDS011;9086;50.966;3.144;2022-11-20T06:51:34;60.37;;;35.07;;
17921;SDS011;9086;50.966;3.144;2022-11-20T06:54:00;72.83;;;36.33;;
17921;SDS011;9086;50.966;3.144;2022-11-20T06:56:26;64.50;;;34.23;;
17921;SDS011;9086;50.966;3.144;2022-11-20T06:58:53;59.97;;;35.77;;
17921;SDS011;9086;50.966;3.144;2022-11-20T07:01:19;64.53;;;36.47;;
17921;SDS011;9086;50.966;3.144;2022-11-20T07:03:45;68.73;;;36.87;;
17921;SDS011;9086;50.966;3.144;2022-11-20T07:06:11;74.93;;;38.90;;
17921;SDS011;9086;50.966;3.144;2022-11-20T07:08:37;70.70;;;39.07;;
17921;SDS011;9086;50.966;3.144;2022-11-20T07:11:04;82.00;;;39.63;;
17921;SDS011;9086;50.966;3.144;2022-11-20T07:13:31;78.50;;;41.43;;
17921;SDS011;9086;50.966;3.144;2022-11-20T07:16:05;74.80;;;38.73;;
17921;SDS011;9086;50.966;3.144;2022-11-20T07:18:31;75.80;;;38.90;;
17921;SDS011;9086;50.966;3.144;2022-11-20T07:21:01;72.30;;;36.50;;
17921;SDS011;9086;50.966;3.144;2022-11-20T07:23:27;58.80;;;32.43;;
17921;SDS011;9086;50.966;3.144;2022-11-20T07:25:53;65.77;;;36.70;;
17921;SDS011;9086;50.966;3.144;2022-11-20T07:28:19;63.97;;;36.17;;
17921;SDS011;9086;50.966;3.144;2022-11-20T07:30:51;58.83;;;35.37;;
17921;SDS011;9086;50.966;3.144;2022-11-20T07:33:18;62.97;;;35.33;;
17921;SDS011;9086;50.966;3.144;2022-11-20T07:35:45;51.20;;;31.13;;
17921;SDS011;9086;50.966;3.144;2022-11-20T07:38:11;51.80;;;33.80;;
17921;SDS011;9086;50.966;3.144;2022-11-20T07:40:37;59.30;;;36.70;;
17921;SDS011;9086;50.966;3.144;2022-11-20T07:43:03;54.47;;;34.87;;
17921;SDS011;9086;50.966;3.144;2022-11-20T07:45:29;54.57;;;35.50;;
17921;SDS011;9086;50.966;3.144;2022-11-20T07:47:55;53.57;;;35.63;;
17921;SDS011;9086;50.966;3.144;2022-11-20T07:50:21;44.00;;;32.50;;
17921;SDS011;9086;50.966;3.144;2022-11-20T07:52:47;47.60;;;33.73;;
17921;SDS011;9086;50.966;3.144;2022-11-20T07:55:13;47.50;;;35.00;;
17921;SDS011;9086;50.966;3.144;2022-11-20T07:57:40;45.47;;;34.40;;
17921;SDS011;9086;50.966;3.144;2022-11-20T08:00:06;46.50;;;31.77;;
17921;SDS011;9086;50.966;3.144;2022-11-20T08:02:37;45.43;;;36.70;;
17921;SDS011;9086;50.966;3.144;2022-11-20T08:05:04;46.20;;;35.03;;
17921;SDS011;9086;50.966;3.144;2022-11-20T08:07:34;47.13;;;40.20;;
17921;SDS011;9086;50.966;3.144;2022-11-20T08:10:00;48.40;;;40.20;;
17921;SDS011;9086;50.966;3.144;2022-11-20T08:12:26;42.47;;;37.97;;
17921;SDS011;9086;50.966;3.144;2022-11-20T08:15:11;42.73;;;37.07;;
17921;SDS011;9086;50.966;3.144;2022-11-20T08:17:37;45.27;;;37.50;;
17921;SDS011;9086;50.966;3.144;2022-11-20T08:20:03;44.33;;;39.70;;
17921;SDS011;9086;50.966;3.144;2022-11-20T08:22:29;44.93;;;36.17;;
17921;SDS011;9086;50.966;3.144;2022-11-20T08:24:55;43.27;;;38.77;;
17921;SDS011;9086;50.966;3.144;2022-11-20T08:27:22;44.47;;;39.50;;
17921;SDS011;9086;50.966;3.144;2022-11-20T08:29:48;45.40;;;38.47;;
17921;SDS011;9086;50.966;3.144;2022-11-20T08:32:14;43.27;;;38.13;;
17921;SDS011;9086;50.966;3.144;2022-11-20T08:34:40;46.93;;;42.00;;
17921;SDS011;9086;50.966;3.144;2022-11-20T08:37:06;44.07;;;39.63;;
17921;SDS011;9086;50.966;3.144;2022-11-20T08:39:32;45.00;;;40.20;;
17921;SDS011;9086;50.966;3.144;2022-11-20T08:41:58;43.83;;;39.07;;
17921;SDS011;9086;50.966;3.144;2022-11-20T08:44:24;47.43;;;42.83;;
17921;SDS011;9086;50.966;3.144;2022-11-20T08:46:50;44.93;;;40.63;;
17921;SDS011;9086;50.966;3.144;2022-11-20T08:49:16;51.57;;;46.70;;
17921;SDS011;9086;50.966;3.144;2022-11-20T08:51:43;50.70;;;46.27;;
17921;SDS011;9086;50.966;3.144;2022-11-20T08:54:09;49.00;;;44.73;;
17921;SDS011;9086;50.966;3.144;2022-11-20T08:56:36;50.67;;;46.43;;
17921;SDS011;9086;50.966;3.144;2022-11-20T08:59:02;50.33;;;46.13;;
17921;SDS011;9086;50.966;3.144;2022-11-20T09:01:28;45.97;;;42.07;;
17921;SDS011;9086;50.966;3.144;2022-11-20T09:03:55;44.53;;;40.67;;
17921;SDS011;9086;50.966;3.144;2022-11-20T09:06:22;48.37;;;44.37;;
17921;SDS011;9086;50.966;3.144;2022-11-20T09:08:51;42.13;;;38.30;;
17921;SDS011;9086;50.966;3.144;2022-11-20T09:11:17;50.93;;;47.23;;
17921;SDS011;9086;50.966;3.144;2022-11-20T09:13:43;53.13;;;48.90;;
17921;SDS011;9086;50.966;3.144;2022-11-20T09:16:09;46.37;;;42.27;;
17921;SDS011;9086;50.966;3.144;2022-11-20T09:18:35;42.47;;;38.90;;
17921;SDS011;9086;50.966;3.144;2022-11-20T09:21:03;43.10;;;39.47;;
17921;SDS011;9086;50.966;3.144;2022-11-20T09:23:34;41.33;;;38.03;;
17921;SDS011;9086;50.966;3.144;2022-11-20T09:26:04;42.80;;;39.60;;
17921;SDS011;9086;50.966;3.144;2022-11-20T09:28:30;40.67;;;37.30;;
17921;SDS011;9086;50.966;3.144;2022-11-20T09:30:56;41.03;;;37.60;;
17921;SDS011;9086;50.966;3.144;2022-11-20T09:33:22;36.53;;;33.57;;
17921;SDS011;9086;50.966;3.144;2022-11-20T09:35:49;36.10;;;33.47;;
17921;SDS011;9086;50.966;3.144;2022-11-20T09:38:15;32.67;;;30.37;;
17921;SDS011;9086;50.966;3.144;2022-11-20T09:40:46;30.00;;;27.83;;
17921;SDS011;9086;50.966;3.144;2022-11-20T09:56:11;21.83;;;20.57;;
17921;SDS011;9086;50.966;3.144;2022-11-20T09:58:57;16.57;;;15.57;;
17921;SDS011;9086;50.966;3.144;2022-11-20T10:01:32;15.40;;;14.30;;
17921;SDS011;9086;50.966;3.144;2022-11-20T10:04:18;14.67;;;13.77;;
17921;SDS011;9086;50.966;3.144;2022-11-20T10:21:59;7.67;;;7.03;;
17921;SDS011;9086;50.966;3.144;2022-11-20T10:29:45;7.07;;;6.00;;
17921;SDS011;9086;50.966;3.144;2022-11-20T10:32:13;5.80;;;5.33;;
17921;SDS011;9086;50.966;3.144;2022-11-20T10:37:26;5.80;;;4.90;;
17921;SDS011;9086;50.966;3.144;2022-11-20T10:42:31;6.13;;;5.00;;
17921;SDS011;9086;50.966;3.144;2022-11-20T10:50:26;6.90;;;5.50;;
17921;SDS011;9086;50.966;3.144;2022-11-20T10:52:57;5.63;;;5.13;;
17921;SDS011;9086;50.966;3.144;2022-11-20T11:00:23;5.57;;;5.13;;
17921;SDS011;9086;50.966;3.144;2022-11-20T11:02:50;5.73;;;5.27;;
17921;SDS011;9086;50.966;3.144;2022-11-20T11:07:47;7.00;;;6.13;;
17921;SDS011;9086;50.966;3.144;2022-11-20T11:10:16;10.63;;;6.60;;
17921;SDS011;9086;50.966;3.144;2022-11-20T11:12:44;7.77;;;5.77;;
17921;SDS011;9086;50.966;3.144;2022-11-20T11:15:12;5.97;;;5.33;;
17921;SDS011;9086;50.966;3.144;2022-11-20T11:17:46;5.77;;;5.20;;
17921;SDS011;9086;50.966;3.144;2022-11-20T11:20:17;7.10;;;6.60;;
17921;SDS011;9086;50.966;3.144;2022-11-20T11:22:50;6.10;;;5.50;;
17921;SDS011;9086;50.966;3.144;2022-11-20T11:25:38;7.57;;;6.40;;
17921;SDS011;9086;50.966;3.144;2022-11-20T11:28:17;7.67;;;6.60;;
17921;SDS011;9086;50.966;3.144;2022-11-20T11:30:45;8.07;;;7.27;;
17921;SDS011;9086;50.966;3.144;2022-11-20T11:33:46;7.00;;;6.60;;
17921;SDS011;9086;50.966;3.144;2022-11-20T11:36:16;7.53;;;7.00;;
17921;SDS011;9086;50.966;3.144;2022-11-20T11:38:43;8.17;;;7.37;;
17921;SDS011;9086;50.966;3.144;2022-11-20T11:41:12;8.63;;;7.87;;
17921;SDS011;9086;50.966;3.144;2022-11-20T11:43:40;8.37;;;7.60;;
17921;SDS011;9086;50.966;3.144;2022-11-20T11:46:34;10.33;;;9.43;;
17921;SDS011;9086;50.966;3.144;2022-11-20T11:51:29;10.93;;;9.87;;
17921;SDS011;9086;50.966;3.144;2022-11-20T11:53:58;11.63;;;10.93;;
17921;SDS011;9086;50.966;3.144;2022-11-20T11:56:24;12.30;;;11.37;;
17921;SDS011;9086;50.966;3.144;2022-11-20T11:58:51;13.27;;;12.13;;
17921;SDS011;9086;50.966;3.144;2022-11-20T12:03:55;14.03;;;13.33;;
17921;SDS011;9086;50.966;3.144;2022-11-20T12:06:26;15.03;;;13.87;;
17921;SDS011;9086;50.966;3.144;2022-11-20T12:08:58;17.63;;;16.73;;
17921;SDS011;9086;50.966;3.144;2022-11-20T12:11:33;16.70;;;15.80;;
17921;SDS011;9086;50.966;3.144;2022-11-20T12:16:44;20.17;;;19.27;;
17921;SDS011;9086;50.966;3.144;2022-11-20T12:19:11;19.80;;;18.50;;
17921;SDS011;9086;50.966;3.144;2022-11-20T12:24:22;20.40;;;19.50;;
17921;SDS011;9086;50.966;3.144;2022-11-20T12:29:30;21.67;;;20.63;;
17921;SDS011;9086;50.966;3.144;2022-11-20T12:32:42;19.63;;;18.80;;
17921;SDS011;9086;50.966;3.144;2022-11-20T12:35:05;22.33;;;21.33;;
17921;SDS011;9086;50.966;3.144;2022-11-20T12:37:48;23.73;;;22.73;;
17921;SDS011;9086;50.966;3.144;2022-11-20T12:45:54;24.30;;;23.30;;
17921;SDS011;9086;50.966;3.144;2022-11-20T12:56:21;26.87;;;25.63;;
17921;SDS011;9086;50.966;3.144;2022-11-20T12:59:04;27.70;;;26.30;;
17921;SDS011;9086;50.966;3.144;2022-11-20T13:04:24;24.27;;;23.07;;
17921;SDS011;9086;50.966;3.144;2022-11-20T13:06:57;25.93;;;24.80;;
17921;SDS011;9086;50.966;3.144;2022-11-20T13:09:24;27.03;;;26.03;;
17921;SDS011;9086;50.966;3.144;2022-11-20T13:11:55;24.43;;;23.43;;
17921;SDS011;9086;50.966;3.144;2022-11-20T13:19:28;26.23;;;25.13;;
17921;SDS011;9086;50.966;3.144;2022-11-20T13:21:54;30.13;;;28.73;;
17921;SDS011;9086;50.966;3.144;2022-11-20T13:26:48;31.30;;;30.07;;
17921;SDS011;9086;50.966;3.144;2022-11-20T13:29:25;33.43;;;32.20;;
17921;SDS011;9086;50.966;3.144;2022-11-20T13:32:00;39.33;;;37.77;;
17921;SDS011;9086;50.966;3.144;2022-11-20T13:34:27;42.73;;;41.13;;
17921;SDS011;9086;50.966;3.144;2022-11-20T13:36:55;42.83;;;41.07;;
17921;SDS011;9086;50.966;3.144;2022-11-20T13:39:28;52.17;;;50.33;;
17921;SDS011;9086;50.966;3.144;2022-11-20T13:41:56;52.97;;;50.90;;
17921;SDS011;9086;50.966;3.144;2022-11-20T13:46:49;40.17;;;38.57;;
17921;SDS011;9086;50.966;3.144;2022-11-20T13:51:51;43.33;;;41.60;;
17921;SDS011;9086;50.966;3.144;2022-11-20T13:57:14;41.13;;;39.43;;
17921;SDS011;9086;50.966;3.144;2022-11-20T14:02:19;38.30;;;36.53;;
17921;SDS011;9086;50.966;3.144;2022-11-20T14:04:47;31.67;;;30.13;;
17921;SDS011;9086;50.966;3.144;2022-11-20T14:07:14;27.87;;;25.73;;
17921;SDS011;9086;50.966;3.144;2022-11-20T14:09:48;21.50;;;20.20;;
17921;SDS011;9086;50.966;3.144;2022-11-20T14:12:15;18.17;;;17.10;;
17921;SDS011;9086;50.966;3.144;2022-11-20T14:14:49;15.47;;;14.27;;
17921;SDS011;9086;50.966;3.144;2022-11-20T14:17:30;12.87;;;11.97;;
17921;SDS011;9086;50.966;3.144;2022-11-20T14:20:06;11.23;;;10.10;;
17921;SDS011;9086;50.966;3.144;2022-11-20T14:22:37;10.93;;;8.07;;
17921;SDS011;9086;50.966;3.144;2022-11-20T14:27:39;10.30;;;5.57;;
17921;SDS011;9086;50.966;3.144;2022-11-20T14:30:12;12.33;;;5.63;;
17921;SDS011;9086;50.966;3.144;2022-11-20T14:32:38;9.93;;;5.73;;
17921;SDS011;9086;50.966;3.144;2022-11-20T14:35:09;10.20;;;4.47;;
17921;SDS011;9086;50.966;3.144;2022-11-20T14:37:38;7.33;;;3.53;;
17921;SDS011;9086;50.966;3.144;2022-11-20T14:40:20;6.50;;;3.17;;
17921;SDS011;9086;50.966;3.144;2022-11-20T14:42:47;6.63;;;3.23;;
17921;SDS011;9086;50.966;3.144;2022-11-20T14:45:13;12.30;;;3.90;;
17921;SDS011;9086;50.966;3.144;2022-11-20T14:47:39;10.87;;;3.43;;
17921;SDS011;9086;50.966;3.144;2022-11-20T14:50:08;11.67;;;3.53;;
17921;SDS011;9086;50.966;3.144;2022-11-20T14:52:38;11.93;;;3.47;;
17921;SDS011;9086;50.966;3.144;2022-11-20T14:55:04;9.67;;;3.83;;
17921;SDS011;9086;50.966;3.144;2022-11-20T14:57:31;11.50;;;4.30;;
17921;SDS011;9086;50.966;3.144;2022-11-20T15:00:04;9.03;;;3.73;;
17921;SDS011;9086;50.966;3.144;2022-11-20T15:02:30;13.50;;;4.23;;
17921;SDS011;9086;50.966;3.144;2022-11-20T15:04:57;8.33;;;3.37;;
17921;SDS011;9086;50.966;3.144;2022-11-20T15:07:24;13.43;;;4.23;;
17921;SDS011;9086;50.966;3.144;2022-11-20T15:10:01;10.80;;;3.43;;
17921;SDS011;9086;50.966;3.144;2022-11-20T15:12:27;16.30;;;3.50;;
17921;SDS011;9086;50.966;3.144;2022-11-20T15:14:54;10.63;;;3.07;;
17921;SDS011;9086;50.966;3.144;2022-11-20T15:17:20;10.40;;;3.03;;
17921;SDS011;9086;50.966;3.144;2022-11-20T15:19:46;14.57;;;3.30;;
17921;SDS011;9086;50.966;3.144;2022-11-20T15:22:13;11.03;;;3.27;;
17921;SDS011;9086;50.966;3.144;2022-11-20T15:24:41;11.60;;;4.40;;
17921;SDS011;9086;50.966;3.144;2022-11-20T15:27:07;13.27;;;6.13;;
17921;SDS011;9086;50.966;3.144;2022-11-20T15:29:33;14.33;;;4.20;;
17921;SDS011;9086;50.966;3.144;2022-11-20T15:31:59;11.40;;;3.43;;
17921;SDS011;9086;50.966;3.144;2022-11-20T15:34:26;12.73;;;3.37;;
17921;SDS011;9086;50.966;3.144;2022-11-20T15:36:52;11.80;;;3.03;;
17921;SDS011;9086;50.966;3.144;2022-11-20T15:39:19;13.97;;;3.97;;
17921;SDS011;9086;50.966;3.144;2022-11-20T15:41:45;11.07;;;3.30;;
17921;SDS011;9086;50.966;3.144;2022-11-20T15:44:11;11.33;;;4.37;;
17921;SDS011;9086;50.966;3.144;2022-11-20T15:46:41;11.87;;;3.20;;
17921;SDS011;9086;50.966;3.144;2022-11-20T15:49:13;15.30;;;3.93;;
17921;SDS011;9086;50.966;3.144;2022-11-20T15:51:40;10.83;;;3.70;;
17921;SDS011;9086;50.966;3.144;2022-11-20T15:54:11;10.90;;;3.20;;
17921;SDS011;9086;50.966;3.144;2022-11-20T15:56:37;15.67;;;4.20;;
17921;SDS011;9086;50.966;3.144;2022-11-20T15:59:03;13.73;;;4.27;;
17921;SDS011;9086;50.966;3.144;2022-11-20T16:01:29;15.10;;;4.40;;
17921;SDS011;9086;50.966;3.144;2022-11-20T16:03:56;8.20;;;3.70;;
17921;SDS011;9086;50.966;3.144;2022-11-20T16:06:22;20.20;;;13.37;;
17921;SDS011;9086;50.966;3.144;2022-11-20T16:08:48;16.40;;;4.90;;
17921;SDS011;9086;50.966;3.144;2022-11-20T16:11:15;12.77;;;4.03;;
17921;SDS011;9086;50.966;3.144;2022-11-20T16:13:41;10.97;;;4.17;;
17921;SDS011;9086;50.966;3.144;2022-11-20T16:16:35;10.07;;;4.17;;
17921;SDS011;9086;50.966;3.144;2022-11-20T16:19:02;11.23;;;5.23;;
17921;SDS011;9086;50.966;3.144;2022-11-20T16:21:28;13.20;;;6.93;;
17921;SDS011;9086;50.966;3.144;2022-11-20T16:24:07;18.77;;;6.80;;
17921;SDS011;9086;50.966;3.144;2022-11-20T16:26:33;13.93;;;4.97;;